createdAt,value
2018-12-06T00:01:51.638Z,5.90
2018-12-06T00:04:17.692Z,5.70
2018-12-06T00:06:43.651Z,5.70
2018-12-06T00:09:09.710Z,5.70
2018-12-06T00:11:35.648Z,5.60
2018-12-06T00:14:01.686Z,5.80
2018-12-06T00:16:27.633Z,5.80
2018-12-06T00:19:02.654Z,5.80
2018-12-06T00:21:28.603Z,6.00
2018-12-06T00:23:54.537Z,5.90
2018-12-06T00:26:20.593Z,5.90
2018-12-06T00:28:46.532Z,5.90
2018-12-06T00:31:12.490Z,6.00
2018-12-06T00:33:38.545Z,6.10
2018-12-06T00:36:04.520Z,6.10
2018-12-06T00:38:30.460Z,6.20
2018-12-06T00:40:56.393Z,6.20
2018-12-06T00:43:22.325Z,6.30
2018-12-06T00:45:48.285Z,6.30
2018-12-06T00:48:14.221Z,6.30
2018-12-06T00:50:40.286Z,6.00
2018-12-06T00:53:06.346Z,6.00
2018-12-06T00:55:32.385Z,6.00
2018-12-06T00:57:58.440Z,5.90
2018-12-06T01:00:24.485Z,5.90
2018-12-06T01:02:50.434Z,6.00
2018-12-06T01:05:16.482Z,5.90
2018-12-06T01:07:42.790Z,5.80
2018-12-06T01:10:08.962Z,5.80
2018-12-06T01:12:35.006Z,5.90
2018-12-06T01:15:01.174Z,6.00
2018-12-06T01:17:27.124Z,6.10
2018-12-06T01:19:53.609Z,6.20
2018-12-06T01:22:19.666Z,6.20
2018-12-06T01:24:45.604Z,6.10
2018-12-06T01:27:11.545Z,6.10
2018-12-06T01:29:37.605Z,6.10
2018-12-06T01:32:04.067Z,6.20
2018-12-06T01:34:30.001Z,6.20
2018-12-06T01:36:56.054Z,6.20
2018-12-06T01:39:22.009Z,6.30
2018-12-06T01:41:48.029Z,6.40
2018-12-06T01:44:14.068Z,6.40
2018-12-06T01:46:40.111Z,6.40
2018-12-06T01:49:06.170Z,6.30
2018-12-06T01:51:32.217Z,6.30
2018-12-06T01:53:58.159Z,6.30
2018-12-06T01:56:24.208Z,6.30
2018-12-06T01:58:50.145Z,6.40
2018-12-06T02:01:16.309Z,6.30
2018-12-06T02:03:42.259Z,6.30
2018-12-06T02:06:08.250Z,6.50
2018-12-06T02:08:34.201Z,6.50
2018-12-06T02:11:00.254Z,6.60
2018-12-06T02:13:26.210Z,6.70
2018-12-06T02:15:52.150Z,6.70
2018-12-06T02:18:18.097Z,6.70
2018-12-06T02:20:44.254Z,6.80
2018-12-06T02:23:10.221Z,6.80
2018-12-06T02:25:36.166Z,6.80
2018-12-06T02:28:02.322Z,7.00
2018-12-06T02:30:28.378Z,7.00
2018-12-06T02:32:54.441Z,7.00
2018-12-06T02:35:21.410Z,6.90
2018-12-06T02:37:47.558Z,6.90
2018-12-06T02:40:13.739Z,7.00
2018-12-06T02:42:39.907Z,7.00
2018-12-06T02:45:06.020Z,6.90
2018-12-06T02:47:32.348Z,6.80
2018-12-06T02:49:58.294Z,6.80
2018-12-06T02:52:24.594Z,6.80
2018-12-06T02:54:50.543Z,6.80
2018-12-06T02:57:16.596Z,7.00
2018-12-06T02:59:42.574Z,6.90
2018-12-06T03:02:08.724Z,7.00
2018-12-06T03:04:34.679Z,7.10
2018-12-06T03:07:00.829Z,7.10
2018-12-06T03:09:26.786Z,7.20
2018-12-06T03:11:52.839Z,7.30
2018-12-06T03:14:18.790Z,7.20
2018-12-06T03:16:44.744Z,7.10
2018-12-06T03:19:10.802Z,7.00
2018-12-06T03:21:36.746Z,7.00
2018-12-06T03:24:02.794Z,7.00
2018-12-06T03:26:28.738Z,6.90
2018-12-06T03:28:54.697Z,7.00
2018-12-06T03:31:20.644Z,7.00
2018-12-06T03:33:46.736Z,6.90
2018-12-06T03:36:12.882Z,6.90
2018-12-06T03:38:38.953Z,6.90
2018-12-06T03:41:05.083Z,7.10
2018-12-06T03:43:31.134Z,7.20
2018-12-06T03:45:57.078Z,7.10
2018-12-06T03:48:23.235Z,7.00
2018-12-06T03:50:49.274Z,7.00
2018-12-06T03:53:15.367Z,7.20
2018-12-06T03:55:41.419Z,7.20
2018-12-06T03:58:07.381Z,7.10
2018-12-06T04:00:33.338Z,6.90
2018-12-06T04:02:59.393Z,6.90
2018-12-06T04:05:25.394Z,6.90
2018-12-06T04:07:51.362Z,6.90
2018-12-06T04:10:17.426Z,6.90
2018-12-06T04:12:43.578Z,6.90
2018-12-06T04:15:09.542Z,6.80
2018-12-06T04:17:35.598Z,6.80
2018-12-06T04:20:02.454Z,6.90
2018-12-06T04:22:28.503Z,7.00
2018-12-06T04:24:54.438Z,7.00
2018-12-06T04:27:20.577Z,6.90
2018-12-06T04:29:46.564Z,6.90
2018-12-06T04:32:12.665Z,6.90
2018-12-06T04:34:38.601Z,6.80
2018-12-06T04:37:04.545Z,6.80
2018-12-06T04:39:30.466Z,6.80
2018-12-06T04:41:56.502Z,6.80
2018-12-06T04:44:22.640Z,6.80
2018-12-06T04:46:48.576Z,6.80
2018-12-06T04:49:14.721Z,6.70
2018-12-06T04:51:40.761Z,6.80
2018-12-06T04:54:06.828Z,6.70
2018-12-06T04:56:32.744Z,6.80
2018-12-06T04:58:58.896Z,6.80
2018-12-06T05:01:24.928Z,6.80
2018-12-06T05:03:51.102Z,6.80
2018-12-06T05:06:17.039Z,6.80
2018-12-06T05:08:42.969Z,6.80
2018-12-06T05:11:09.113Z,6.80
2018-12-06T05:13:35.169Z,6.80
2018-12-06T05:16:01.109Z,6.80
2018-12-06T05:18:27.055Z,6.90
2018-12-06T05:20:52.984Z,6.60
2018-12-06T05:23:18.921Z,6.50
2018-12-06T05:25:44.966Z,6.40
2018-12-06T05:28:11.125Z,6.40
2018-12-06T05:30:37.077Z,6.50
2018-12-06T05:33:10.100Z,6.60
2018-12-06T05:35:36.033Z,6.60
2018-12-06T05:38:01.969Z,6.70
2018-12-06T05:40:27.900Z,6.70
2018-12-06T05:42:53.937Z,6.60
2018-12-06T05:45:19.876Z,6.50
2018-12-06T05:47:45.809Z,6.60
2018-12-06T05:50:11.973Z,6.50
2018-12-06T05:52:37.909Z,6.50
2018-12-06T05:55:04.261Z,6.40
2018-12-06T05:57:30.209Z,6.50
2018-12-06T05:59:56.141Z,6.40
2018-12-06T06:02:22.194Z,6.40
2018-12-06T06:04:48.241Z,6.40
2018-12-06T06:07:14.199Z,6.40
2018-12-06T06:09:40.256Z,6.40
2018-12-06T06:12:06.303Z,6.30
2018-12-06T06:14:32.235Z,6.40
2018-12-06T06:16:58.176Z,6.30
2018-12-06T06:19:24.230Z,6.40
2018-12-06T06:21:50.182Z,6.40
2018-12-06T06:24:16.118Z,6.50
2018-12-06T06:26:42.052Z,6.40
2018-12-06T06:29:08.002Z,6.40
2018-12-06T06:31:33.934Z,6.40
2018-12-06T06:33:59.971Z,6.30
2018-12-06T06:36:26.117Z,6.50
2018-12-06T06:38:52.121Z,6.40
2018-12-06T06:41:18.072Z,6.50
2018-12-06T06:43:44.024Z,6.40
2018-12-06T06:46:09.965Z,6.40
2018-12-06T06:48:36.020Z,6.30
2018-12-06T06:51:01.969Z,6.30
2018-12-06T06:53:27.913Z,6.30
2018-12-06T06:55:53.848Z,6.30
2018-12-06T06:58:19.781Z,6.30
2018-12-06T07:00:45.829Z,6.40
2018-12-06T07:03:11.983Z,6.50
2018-12-06T07:05:38.044Z,6.50
2018-12-06T07:08:04.099Z,6.50
2018-12-06T07:10:30.043Z,6.50
2018-12-06T07:12:55.973Z,6.40
2018-12-06T07:15:22.023Z,6.40
2018-12-06T07:17:47.972Z,6.40
2018-12-06T07:20:13.897Z,6.60
2018-12-06T07:22:39.960Z,6.60
2018-12-06T07:25:06.234Z,6.50
2018-12-06T07:27:32.283Z,6.50
2018-12-06T07:29:58.229Z,6.60
2018-12-06T07:32:24.288Z,6.60
2018-12-06T07:34:50.347Z,6.60
2018-12-06T07:37:16.321Z,6.60
2018-12-06T07:39:42.455Z,6.60
2018-12-06T07:42:15.453Z,6.50
2018-12-06T07:44:41.525Z,6.70
2018-12-06T07:47:07.461Z,7.20
2018-12-06T07:49:33.510Z,7.50
2018-12-06T07:51:59.660Z,7.60
2018-12-06T07:54:25.594Z,7.60
2018-12-06T07:56:51.642Z,7.60
2018-12-06T07:59:17.704Z,7.40
2018-12-06T08:01:43.754Z,7.30
2018-12-06T08:04:09.684Z,7.40
2018-12-06T08:06:35.620Z,7.80
2018-12-06T08:09:01.677Z,7.90
2018-12-06T08:11:27.741Z,8.10
2018-12-06T08:13:53.781Z,8.00
2018-12-06T08:16:19.816Z,7.50
2018-12-06T08:18:45.758Z,7.30
2018-12-06T08:21:11.692Z,7.10
2018-12-06T08:23:37.642Z,7.20
2018-12-06T08:26:03.612Z,7.30
2018-12-06T08:28:29.556Z,7.50
2018-12-06T08:30:55.513Z,7.60
2018-12-06T08:33:21.458Z,7.60
2018-12-06T08:35:47.390Z,7.70
2018-12-06T08:38:13.340Z,7.70
2018-12-06T08:40:39.381Z,7.80
2018-12-06T08:43:05.431Z,7.90
2018-12-06T08:45:31.384Z,7.90
2018-12-06T08:47:57.312Z,8.00
2018-12-06T08:50:23.470Z,7.90
2018-12-06T08:52:49.542Z,7.80
2018-12-06T08:55:15.600Z,7.70
2018-12-06T08:57:41.530Z,7.60
2018-12-06T09:00:08.608Z,7.60
2018-12-06T09:02:34.662Z,7.50
2018-12-06T09:05:00.609Z,7.50
2018-12-06T09:07:26.669Z,7.40
2018-12-06T09:09:52.603Z,7.50
2018-12-06T09:12:18.661Z,7.60
2018-12-06T09:14:44.740Z,7.70
2018-12-06T09:17:10.885Z,7.90
2018-12-06T09:19:36.829Z,8.10
2018-12-06T09:22:03.082Z,8.20
2018-12-06T09:24:29.125Z,8.20
2018-12-06T09:26:58.824Z,8.20
2018-12-06T09:29:23.035Z,8.20
2018-12-06T09:31:48.968Z,8.20
2018-12-06T09:34:15.032Z,8.30
2018-12-06T09:36:41.080Z,8.10
2018-12-06T09:39:07.229Z,8.20
2018-12-06T09:41:33.292Z,8.20
2018-12-06T09:43:59.380Z,8.40
2018-12-06T09:46:25.419Z,8.40
2018-12-06T09:48:51.462Z,8.60
2018-12-06T09:51:17.401Z,8.60
2018-12-06T09:53:43.345Z,8.70
2018-12-06T09:56:09.495Z,8.80
2018-12-06T09:58:35.455Z,8.80
2018-12-06T10:01:01.395Z,9.00
2018-12-06T10:03:27.433Z,8.90
2018-12-06T10:05:53.385Z,9.00
2018-12-06T10:08:19.325Z,8.90
2018-12-06T10:10:45.265Z,8.80
2018-12-06T10:13:11.202Z,8.80
2018-12-06T10:15:37.271Z,8.90
2018-12-06T10:18:03.306Z,9.00
2018-12-06T10:20:29.349Z,9.00
2018-12-06T10:22:55.398Z,8.90
2018-12-06T10:25:21.462Z,8.90
2018-12-06T10:27:47.404Z,8.90
2018-12-06T10:30:13.386Z,9.00
2018-12-06T10:32:39.477Z,8.90
2018-12-06T10:35:05.620Z,9.00
2018-12-06T10:37:31.669Z,9.10
2018-12-06T10:39:57.709Z,9.20
2018-12-06T10:42:23.760Z,9.30
2018-12-06T10:44:49.937Z,9.50
2018-12-06T10:47:15.905Z,9.60
2018-12-06T10:49:41.943Z,9.70
2018-12-06T10:52:08.118Z,10.10
2018-12-06T10:54:34.276Z,10.10
2018-12-06T10:57:00.324Z,10.10
2018-12-06T10:59:26.378Z,10.10
2018-12-06T11:01:58.589Z,10.20
2018-12-06T11:04:26.671Z,10.00
2018-12-06T11:06:52.688Z,10.00
2018-12-06T11:09:18.733Z,10.20
2018-12-06T11:11:44.683Z,10.40
2018-12-06T11:14:35.797Z,10.50
2018-12-06T11:17:01.865Z,10.50
2018-12-06T11:19:27.921Z,10.20
2018-12-06T11:22:00.733Z,10.20
2018-12-06T11:24:26.772Z,10.30
2018-12-06T11:26:52.707Z,10.20
2018-12-06T11:29:18.901Z,10.30
2018-12-06T11:31:44.954Z,10.40
2018-12-06T11:34:10.998Z,10.40
2018-12-06T11:36:36.933Z,10.40
2018-12-06T11:39:05.493Z,10.50
2018-12-06T11:41:31.521Z,10.60
2018-12-06T11:43:57.460Z,10.60
2018-12-06T11:46:23.505Z,10.60
2018-12-06T11:48:49.670Z,10.70
2018-12-06T11:51:15.604Z,10.90
2018-12-06T11:53:41.537Z,11.00
2018-12-06T11:56:07.482Z,10.90
2018-12-06T11:58:33.516Z,11.00
2018-12-06T12:00:59.572Z,11.00
2018-12-06T12:03:25.504Z,11.10
2018-12-06T12:05:58.419Z,11.20
2018-12-06T12:08:19.390Z,11.50
2018-12-06T12:10:45.348Z,11.80
2018-12-06T12:13:11.401Z,11.70
2018-12-06T12:15:37.357Z,11.50
2018-12-06T12:18:03.625Z,11.20
2018-12-06T12:20:29.581Z,11.20
2018-12-06T12:22:55.557Z,11.20
2018-12-06T12:25:21.509Z,11.20
2018-12-06T12:27:47.457Z,11.00
2018-12-06T12:30:13.416Z,11.10
2018-12-06T12:32:39.464Z,10.90
2018-12-06T12:35:05.704Z,11.00
2018-12-06T12:37:31.771Z,11.10
2018-12-06T12:39:57.716Z,10.90
2018-12-06T12:42:23.669Z,10.50
2018-12-06T12:44:49.614Z,10.30
2018-12-06T12:47:15.658Z,10.10
2018-12-06T12:49:41.704Z,10.10
2018-12-06T12:52:07.855Z,10.20
2018-12-06T12:54:33.910Z,10.10
2018-12-06T12:56:59.948Z,10.30
2018-12-06T12:59:26.025Z,10.40
2018-12-06T13:01:51.951Z,10.50
2018-12-06T13:04:18.092Z,10.50
2018-12-06T13:06:44.138Z,10.50
2018-12-06T13:09:10.189Z,10.50
2018-12-06T13:11:36.130Z,10.60
2018-12-06T13:14:02.468Z,10.50
2018-12-06T13:16:28.637Z,10.50
2018-12-06T13:18:54.769Z,10.80
2018-12-06T13:21:20.812Z,10.80
2018-12-06T13:23:46.733Z,10.60
2018-12-06T13:26:12.796Z,10.70
2018-12-06T13:28:38.945Z,10.80
2018-12-06T13:31:05.147Z,10.60
2018-12-06T13:33:31.405Z,10.50
2018-12-06T13:35:57.441Z,10.30
2018-12-06T13:38:23.373Z,10.40
2018-12-06T13:40:49.432Z,10.50
2018-12-06T13:43:15.568Z,10.10
2018-12-06T13:45:41.618Z,10.00
2018-12-06T13:48:07.790Z,10.10
2018-12-06T13:50:33.820Z,10.00
2018-12-06T13:52:59.765Z,10.00
2018-12-06T13:55:25.711Z,10.10
2018-12-06T13:57:51.633Z,10.00
2018-12-06T14:00:17.769Z,10.00
2018-12-06T14:02:43.702Z,10.00
2018-12-06T14:05:09.749Z,10.10
2018-12-06T14:07:35.684Z,10.10
2018-12-06T14:10:02.244Z,10.10
2018-12-06T14:12:28.190Z,10.10
2018-12-06T14:14:54.125Z,10.10
2018-12-06T14:17:20.090Z,10.10
2018-12-06T14:19:46.136Z,10.10
2018-12-06T14:22:12.142Z,10.10
2018-12-06T14:24:38.565Z,10.10
2018-12-06T14:27:04.707Z,10.00
2018-12-06T14:29:30.736Z,10.10
2018-12-06T14:31:56.901Z,10.10
2018-12-06T14:34:22.837Z,10.00
2018-12-06T14:37:01.682Z,10.00
2018-12-06T14:39:16.820Z,10.00
2018-12-06T14:41:42.977Z,10.00
2018-12-06T14:44:09.121Z,10.10
2018-12-06T14:46:35.063Z,10.20
2018-12-06T14:49:00.999Z,10.10
2018-12-06T14:51:27.053Z,10.20
2018-12-06T14:53:53.009Z,10.20
2018-12-06T14:56:19.262Z,10.30
2018-12-06T14:58:45.297Z,10.20
2018-12-06T15:01:11.353Z,10.10
2018-12-06T15:03:37.409Z,10.20
2018-12-06T15:06:03.574Z,10.10
2018-12-06T15:08:29.728Z,10.00
2018-12-06T15:10:55.783Z,10.00
2018-12-06T15:13:21.717Z,10.00
2018-12-06T15:15:47.649Z,9.90
2018-12-06T15:18:13.693Z,9.80
2018-12-06T15:20:39.742Z,9.80
2018-12-06T15:23:05.791Z,9.70
2018-12-06T15:25:31.745Z,9.70
2018-12-06T15:27:57.785Z,9.70
2018-12-06T15:30:23.930Z,9.60
2018-12-06T15:32:56.880Z,9.60
2018-12-06T15:35:23.021Z,9.60
2018-12-06T15:37:48.962Z,9.50
2018-12-06T15:40:14.996Z,9.50
2018-12-06T15:42:40.933Z,9.50
2018-12-06T15:45:06.972Z,9.50
2018-12-06T15:47:33.004Z,9.40
2018-12-06T15:49:58.941Z,9.30
2018-12-06T15:52:24.875Z,9.30
2018-12-06T15:54:50.936Z,9.40
2018-12-06T15:57:16.972Z,9.30
2018-12-06T15:59:43.109Z,9.20
2018-12-06T16:02:09.268Z,9.10
2018-12-06T16:04:35.305Z,8.90
2018-12-06T16:07:01.257Z,8.80
2018-12-06T16:09:27.204Z,8.80
2018-12-06T16:11:53.236Z,8.70
2018-12-06T16:14:19.157Z,8.80
2018-12-06T16:16:45.092Z,8.90
2018-12-06T16:19:11.343Z,8.90
2018-12-06T16:21:37.564Z,8.90
2018-12-06T16:24:03.712Z,8.90
2018-12-06T16:26:29.633Z,8.80
2018-12-06T16:28:55.557Z,8.90
2018-12-06T16:31:21.484Z,8.90
2018-12-06T16:33:47.437Z,9.00
2018-12-06T16:36:13.361Z,9.10
2018-12-06T16:38:39.524Z,9.00
2018-12-06T16:41:05.461Z,9.10
2018-12-06T16:43:31.589Z,9.10
2018-12-06T16:45:57.640Z,9.10
2018-12-06T16:48:23.686Z,9.20
2018-12-06T16:50:49.737Z,9.20
2018-12-06T16:53:15.790Z,9.20
2018-12-06T16:55:41.837Z,9.30
2018-12-06T16:58:07.772Z,9.20
2018-12-06T17:00:34.033Z,9.20
2018-12-06T17:02:59.996Z,9.20
2018-12-06T17:05:25.922Z,9.10
2018-12-06T17:07:51.956Z,9.10
2018-12-06T17:10:17.990Z,9.10
2018-12-06T17:12:43.930Z,9.10
2018-12-06T17:15:10.105Z,9.10
2018-12-06T17:17:36.240Z,9.20
2018-12-06T17:20:03.377Z,9.20
2018-12-06T17:22:29.365Z,9.20
2018-12-06T17:24:55.318Z,9.30
2018-12-06T17:27:21.304Z,9.40
2018-12-06T17:29:47.476Z,9.30
2018-12-06T17:32:13.514Z,9.30
2018-12-06T17:34:39.564Z,9.30
2018-12-06T17:37:05.622Z,9.30
2018-12-06T17:39:31.564Z,9.20
2018-12-06T17:41:57.669Z,9.10
2018-12-06T17:44:23.741Z,9.10
2018-12-06T17:46:49.669Z,9.00
2018-12-06T17:49:15.603Z,9.00
2018-12-06T17:51:41.540Z,9.10
2018-12-06T17:54:07.733Z,9.10
2018-12-06T17:56:33.854Z,9.10
2018-12-06T17:59:00.016Z,9.20
2018-12-06T18:01:25.952Z,9.20
2018-12-06T18:03:52.092Z,9.20
2018-12-06T18:06:18.242Z,9.30
2018-12-06T18:08:44.181Z,9.30
2018-12-06T18:11:10.118Z,9.30
2018-12-06T18:13:36.070Z,9.30
2018-12-06T18:16:02.133Z,9.30
2018-12-06T18:18:28.168Z,9.30
2018-12-06T18:20:54.208Z,9.50
2018-12-06T18:23:20.267Z,9.40
2018-12-06T18:25:46.517Z,9.40
2018-12-06T18:28:12.657Z,9.40
2018-12-06T18:30:38.753Z,9.30
2018-12-06T18:33:04.684Z,9.30
2018-12-06T18:35:30.622Z,9.30
2018-12-06T18:37:56.560Z,9.20
2018-12-06T18:40:22.680Z,9.20
2018-12-06T18:42:48.614Z,9.20
2018-12-06T18:45:14.582Z,9.20
2018-12-06T18:47:40.634Z,9.20
2018-12-06T18:50:06.698Z,9.20
2018-12-06T18:52:32.632Z,9.30
2018-12-06T18:55:05.701Z,9.30
2018-12-06T18:57:31.652Z,9.30
2018-12-06T18:59:57.696Z,9.40
2018-12-06T19:02:23.737Z,9.30
2018-12-06T19:04:49.684Z,9.30
2018-12-06T19:07:15.616Z,9.40
2018-12-06T19:09:41.561Z,9.40
2018-12-06T19:12:07.608Z,9.50
2018-12-06T19:14:33.649Z,9.40
2018-12-06T19:16:59.616Z,9.50
2018-12-06T19:19:25.637Z,9.40
2018-12-06T19:21:51.791Z,9.40
2018-12-06T19:24:17.737Z,9.40
2018-12-06T19:26:43.687Z,9.40
2018-12-06T19:29:09.751Z,9.50
2018-12-06T19:31:35.791Z,9.50
2018-12-06T19:34:01.845Z,9.50
2018-12-06T19:36:27.784Z,9.50
2018-12-06T19:38:53.896Z,9.60
2018-12-06T19:41:19.955Z,9.60
2018-12-06T19:43:45.901Z,9.60
2018-12-06T19:46:11.849Z,9.70
2018-12-06T19:48:37.773Z,9.60
2018-12-06T19:51:03.933Z,9.70
2018-12-06T19:53:29.858Z,9.60
2018-12-06T19:55:55.784Z,9.70
2018-12-06T19:58:21.831Z,9.70
2018-12-06T20:00:47.774Z,9.70
2018-12-06T20:03:13.830Z,9.70
2018-12-06T20:05:39.771Z,9.90
2018-12-06T20:08:05.709Z,9.90
2018-12-06T20:10:31.754Z,10.00
2018-12-06T20:12:57.685Z,10.00
2018-12-06T20:15:23.619Z,10.00
2018-12-06T20:17:49.561Z,10.00
2018-12-06T20:20:15.647Z,10.00
2018-12-06T20:22:41.610Z,9.90
2018-12-06T20:25:07.757Z,9.90
2018-12-06T20:27:33.711Z,9.90
2018-12-06T20:29:59.648Z,9.80
2018-12-06T20:32:25.732Z,9.80
2018-12-06T20:34:51.717Z,9.80
2018-12-06T20:37:17.761Z,9.70
2018-12-06T20:39:43.799Z,9.70
2018-12-06T20:42:09.736Z,9.70
2018-12-06T20:44:35.681Z,9.80
2018-12-06T20:47:01.617Z,9.80
2018-12-06T20:49:27.681Z,9.90
2018-12-06T20:51:53.625Z,9.80
2018-12-06T20:54:19.706Z,9.90
2018-12-06T20:56:45.745Z,9.90
2018-12-06T20:59:11.794Z,9.90
2018-12-06T21:01:37.840Z,9.90
2018-12-06T21:04:03.907Z,9.90
2018-12-06T21:06:29.952Z,10.00
2018-12-06T21:08:55.999Z,9.90
2018-12-06T21:11:21.927Z,10.00
2018-12-06T21:13:47.861Z,9.90
2018-12-06T21:16:14.005Z,9.90
2018-12-06T21:18:40.057Z,9.90
2018-12-06T21:21:05.991Z,9.90
2018-12-06T21:23:32.192Z,9.90
2018-12-06T21:25:58.137Z,9.90
2018-12-06T21:28:24.080Z,9.90
2018-12-06T21:30:50.011Z,10.00
2018-12-06T21:33:16.059Z,10.10
2018-12-06T21:35:42.116Z,10.20
2018-12-06T21:38:08.083Z,10.20
2018-12-06T21:40:34.133Z,10.30
2018-12-06T21:43:00.074Z,10.30
2018-12-06T21:45:26.113Z,10.30
2018-12-06T21:47:58.361Z,10.30
2018-12-06T21:50:24.292Z,10.30
2018-12-06T21:52:50.228Z,10.20
2018-12-06T21:55:16.159Z,10.30
2018-12-06T21:57:42.093Z,10.30
2018-12-06T22:00:10.284Z,10.20
2018-12-06T22:02:36.617Z,10.20
2018-12-06T22:05:03.187Z,10.20
2018-12-06T22:07:29.149Z,10.20
2018-12-06T22:09:55.094Z,10.20
2018-12-06T22:12:21.033Z,10.40
2018-12-06T22:14:46.984Z,10.40
2018-12-06T22:17:13.058Z,10.40
2018-12-06T22:19:39.097Z,10.40
2018-12-06T22:22:05.157Z,10.40
2018-12-06T22:24:31.200Z,10.50
2018-12-06T22:26:57.245Z,10.50
2018-12-06T22:29:23.289Z,10.30
2018-12-06T22:31:49.328Z,10.30
2018-12-06T22:34:15.273Z,10.30
2018-12-06T22:36:41.226Z,10.30
2018-12-06T22:39:07.379Z,10.40
2018-12-06T22:41:34.141Z,10.50
2018-12-06T22:44:00.193Z,10.50
2018-12-06T22:46:26.390Z,10.50
2018-12-06T22:48:52.637Z,10.40
2018-12-06T22:51:24.192Z,10.30
2018-12-06T22:53:46.844Z,10.50
2018-12-06T22:56:13.030Z,10.40
2018-12-06T22:58:39.138Z,10.50
2018-12-06T23:01:06.515Z,10.40
2018-12-06T23:03:32.628Z,10.30
2018-12-06T23:05:58.923Z,10.30
2018-12-06T23:08:24.933Z,10.40
2018-12-06T23:10:51.132Z,10.30
2018-12-06T23:13:17.236Z,10.30
2018-12-06T23:15:43.338Z,10.30
2018-12-06T23:18:09.550Z,10.30
2018-12-06T23:20:35.641Z,10.40
2018-12-06T23:23:01.617Z,10.40
2018-12-06T23:25:27.618Z,10.30
2018-12-06T23:27:53.585Z,10.20
2018-12-06T23:30:19.697Z,10.20
2018-12-06T23:32:45.678Z,10.20
2018-12-06T23:35:11.665Z,10.20
2018-12-06T23:37:37.626Z,10.10
2018-12-06T23:40:04.929Z,10.10
2018-12-06T23:42:31.066Z,10.10
2018-12-06T23:44:57.043Z,10.10
2018-12-06T23:47:23.013Z,10.10
2018-12-06T23:49:49.104Z,10.10
2018-12-06T23:52:15.080Z,10.10
2018-12-06T23:54:41.064Z,10.10
2018-12-06T23:57:07.161Z,10.10
2018-12-06T23:59:33.222Z,10.20
